createdAt,value
2018-07-13T00:00:16.344Z,57.52
2018-07-13T00:01:16.379Z,57.51
2018-07-13T00:02:16.589Z,57.52
2018-07-13T00:03:26.958Z,57.51
2018-07-13T00:04:16.456Z,57.5
2018-07-13T00:05:16.361Z,57.49
2018-07-13T00:06:16.473Z,57.52
2018-07-13T00:07:16.571Z,57.51
2018-07-13T00:08:16.477Z,57.56
2018-07-13T00:09:16.589Z,57.53
2018-07-13T00:10:16.368Z,57.5
2018-07-13T00:11:16.362Z,57.54
2018-07-13T00:12:16.321Z,57.52
2018-07-13T00:13:16.445Z,57.49
2018-07-13T00:14:16.682Z,57.5
2018-07-13T00:15:16.425Z,57.49
2018-07-13T00:16:16.324Z,57.5
2018-07-13T00:17:16.537Z,57.53
2018-07-13T00:18:16.337Z,57.54
2018-07-13T00:19:16.620Z,57.53
2018-07-13T00:20:16.433Z,57.49
2018-07-13T00:21:16.435Z,57.51
2018-07-13T00:22:16.426Z,57.48
2018-07-13T00:23:16.522Z,57.5
2018-07-13T00:24:16.491Z,57.53
2018-07-13T00:25:16.479Z,57.53
2018-07-13T00:26:16.468Z,57.49
2018-07-13T00:27:16.563Z,57.54
2018-07-13T00:28:16.488Z,57.49
2018-07-13T00:29:16.554Z,57.49
2018-07-13T00:30:16.319Z,57.52
2018-07-13T00:31:16.537Z,57.52
2018-07-13T00:32:16.442Z,57.54
2018-07-13T00:33:16.520Z,57.53
2018-07-13T00:34:16.583Z,57.52
2018-07-13T00:35:16.368Z,57.5
2018-07-13T00:36:16.417Z,57.49
2018-07-13T00:37:16.439Z,57.52
2018-07-13T00:38:16.432Z,57.54
2018-07-13T00:39:16.261Z,57.53
2018-07-13T00:40:16.529Z,57.52
2018-07-13T00:41:16.455Z,57.49
2018-07-13T00:42:16.436Z,57.52
2018-07-13T00:43:16.310Z,57.52
2018-07-13T00:44:16.427Z,57.53
2018-07-13T00:45:16.464Z,57.54
2018-07-13T00:46:16.446Z,57.49
2018-07-13T00:47:16.500Z,57.49
2018-07-13T00:48:16.333Z,57.5
2018-07-13T00:49:16.458Z,57.53
2018-07-13T00:50:16.497Z,57.5
2018-07-13T00:51:16.557Z,57.52
2018-07-13T00:52:16.588Z,57.52
2018-07-13T00:53:16.368Z,57.49
2018-07-13T00:54:16.640Z,57.52
2018-07-13T00:55:16.355Z,57.53
2018-07-13T00:56:16.440Z,57.48
2018-07-13T00:57:16.314Z,57.55
2018-07-13T00:58:16.379Z,57.49
2018-07-13T00:59:16.457Z,57.52
2018-07-13T01:00:16.604Z,57.48
2018-07-13T01:01:16.413Z,57.51
2018-07-13T01:02:16.638Z,57.46
2018-07-13T01:03:16.343Z,57.52
2018-07-13T01:04:16.602Z,57.47
2018-07-13T01:05:16.392Z,57.53
2018-07-13T01:06:16.606Z,57.51
2018-07-13T01:07:16.414Z,57.48
2018-07-13T01:08:16.315Z,57.48
2018-07-13T01:09:16.803Z,57.55
2018-07-13T01:10:16.758Z,57.51
2018-07-13T01:11:16.330Z,57.5
2018-07-13T01:12:16.353Z,57.52
2018-07-13T01:13:16.526Z,57.52
2018-07-13T01:14:16.476Z,57.47
2018-07-13T01:15:16.523Z,57.49
2018-07-13T01:16:16.548Z,57.5
2018-07-13T01:17:26.525Z,57.46
2018-07-13T01:18:16.344Z,57.47
2018-07-13T01:19:16.474Z,57.48
2018-07-13T01:20:16.518Z,57.47
2018-07-13T01:21:16.333Z,57.55
2018-07-13T01:22:16.587Z,57.49
2018-07-13T01:23:16.501Z,57.49
2018-07-13T01:24:16.671Z,57.45
2018-07-13T01:25:16.569Z,57.47
2018-07-13T01:26:16.384Z,57.45
2018-07-13T01:27:16.276Z,57.48
2018-07-13T01:28:16.375Z,57.48
2018-07-13T01:29:16.572Z,57.47
2018-07-13T01:30:16.407Z,57.49
2018-07-13T01:31:16.570Z,57.47
2018-07-13T01:32:16.376Z,57.47
2018-07-13T01:33:16.426Z,57.48
2018-07-13T01:34:16.483Z,57.47
2018-07-13T01:35:16.374Z,57.47
2018-07-13T01:36:16.509Z,57.45
2018-07-13T01:37:16.513Z,57.46
2018-07-13T01:38:16.391Z,57.47
2018-07-13T01:39:16.459Z,57.46
2018-07-13T01:40:16.423Z,57.43
2018-07-13T01:41:16.504Z,57.46
2018-07-13T01:42:16.537Z,57.43
2018-07-13T01:43:16.338Z,57.49
2018-07-13T01:44:16.369Z,57.46
2018-07-13T01:45:16.368Z,57.48
2018-07-13T01:46:16.321Z,57.48
2018-07-13T01:47:16.458Z,57.45
2018-07-13T01:48:16.517Z,57.49
2018-07-13T01:49:16.354Z,57.48
2018-07-13T01:50:16.405Z,57.45
2018-07-13T01:51:16.529Z,57.48
2018-07-13T01:52:16.698Z,57.45
2018-07-13T01:53:26.396Z,57.46
2018-07-13T01:54:16.397Z,57.47
2018-07-13T01:55:16.325Z,57.5
2018-07-13T01:56:16.429Z,57.45
2018-07-13T01:57:16.497Z,57.48
2018-07-13T01:58:16.680Z,57.47
2018-07-13T01:59:16.489Z,57.46
2018-07-13T02:00:16.469Z,57.48
2018-07-13T02:01:16.295Z,57.45
2018-07-13T02:02:16.432Z,57.44
2018-07-13T02:03:16.484Z,57.45
2018-07-13T02:04:16.357Z,57.46
2018-07-13T02:05:16.296Z,57.47
2018-07-13T02:06:16.307Z,57.47
2018-07-13T02:07:16.495Z,57.48
2018-07-13T02:08:16.501Z,57.43
2018-07-13T02:09:16.371Z,57.47
2018-07-13T02:10:16.433Z,57.44
2018-07-13T02:11:48.411Z,57.49
2018-07-13T02:12:16.468Z,57.49
2018-07-13T02:13:16.673Z,57.47
2018-07-13T02:14:16.551Z,57.47
2018-07-13T02:15:16.514Z,57.47
2018-07-13T02:16:16.512Z,57.5
2018-07-13T02:17:16.495Z,57.43
2018-07-13T02:18:16.243Z,57.5
2018-07-13T02:19:16.369Z,57.45
2018-07-13T02:20:16.544Z,57.44
2018-07-13T02:21:16.380Z,57.46
2018-07-13T02:22:16.398Z,57.47
2018-07-13T02:23:16.639Z,57.44
2018-07-13T02:24:16.456Z,57.47
2018-07-13T02:25:16.481Z,57.49
2018-07-13T02:26:16.593Z,57.45
2018-07-13T02:27:16.328Z,57.46
2018-07-13T02:28:16.517Z,57.48
2018-07-13T02:29:16.628Z,57.44
2018-07-13T02:30:16.496Z,57.49
2018-07-13T02:31:16.495Z,57.49
2018-07-13T02:32:16.628Z,57.45
2018-07-13T02:33:16.529Z,57.46
2018-07-13T02:34:16.456Z,57.45
2018-07-13T02:35:16.334Z,57.43
2018-07-13T02:36:16.618Z,57.42
2018-07-13T02:37:16.393Z,57.5
2018-07-13T02:38:16.354Z,57.47
2018-07-13T02:39:16.563Z,57.44
2018-07-13T02:40:16.487Z,57.49
2018-07-13T02:41:16.401Z,57.46
2018-07-13T02:42:16.352Z,57.46
2018-07-13T02:43:16.425Z,57.44
2018-07-13T02:44:16.444Z,57.42
2018-07-13T02:45:16.444Z,57.44
2018-07-13T02:46:16.479Z,57.44
2018-07-13T02:47:16.317Z,57.44
2018-07-13T02:48:16.529Z,57.46
2018-07-13T02:49:16.574Z,57.45
2018-07-13T02:50:16.369Z,57.42
2018-07-13T02:51:16.364Z,57.44
2018-07-13T02:52:16.511Z,57.44
2018-07-13T02:53:16.485Z,57.43
2018-07-13T02:54:16.404Z,57.44
2018-07-13T02:55:16.290Z,57.46
2018-07-13T02:56:16.325Z,57.43
2018-07-13T02:57:16.476Z,57.46
2018-07-13T02:58:16.430Z,57.43
2018-07-13T02:59:16.665Z,57.44
2018-07-13T03:00:16.527Z,57.46
2018-07-13T03:01:16.386Z,57.44
2018-07-13T03:02:16.485Z,57.47
2018-07-13T03:03:16.440Z,57.45
2018-07-13T03:04:16.365Z,57.43
2018-07-13T03:05:16.600Z,57.43
2018-07-13T03:06:16.328Z,57.46
2018-07-13T03:07:16.285Z,57.44
2018-07-13T03:08:16.439Z,57.46
2018-07-13T03:09:16.504Z,57.46
2018-07-13T03:10:16.453Z,57.46
2018-07-13T03:11:16.363Z,57.42
2018-07-13T03:12:16.446Z,57.4
2018-07-13T03:13:16.493Z,57.41
2018-07-13T03:14:16.363Z,57.43
2018-07-13T03:15:16.448Z,57.43
2018-07-13T03:16:16.490Z,57.44
2018-07-13T03:17:16.501Z,57.41
2018-07-13T03:18:16.544Z,57.41
2018-07-13T03:19:16.495Z,57.44
2018-07-13T03:20:16.375Z,57.42
2018-07-13T03:21:16.423Z,57.45
2018-07-13T03:22:17.446Z,57.43
2018-07-13T03:23:16.584Z,57.42
2018-07-13T03:24:16.533Z,57.44
2018-07-13T03:25:16.280Z,57.43
2018-07-13T03:26:16.508Z,57.4
2018-07-13T03:27:16.334Z,57.42
2018-07-13T03:28:16.437Z,57.41
2018-07-13T03:29:16.623Z,57.45
2018-07-13T03:30:16.539Z,57.42
2018-07-13T03:31:16.479Z,57.44
2018-07-13T03:32:16.535Z,57.38
2018-07-13T03:33:16.626Z,57.43
2018-07-13T03:34:16.381Z,57.41
2018-07-13T03:35:16.803Z,57.41
2018-07-13T03:36:16.311Z,57.43
2018-07-13T03:37:16.343Z,57.42
2018-07-13T03:38:16.761Z,57.41
2018-07-13T03:39:16.466Z,57.43
2018-07-13T03:40:16.302Z,57.41
2018-07-13T03:41:16.433Z,57.38
2018-07-13T03:42:16.332Z,57.42
2018-07-13T03:43:16.240Z,57.43
2018-07-13T03:44:16.413Z,57.35
2018-07-13T03:45:16.336Z,57.44
2018-07-13T03:46:16.627Z,57.45
2018-07-13T03:47:16.485Z,57.42
2018-07-13T03:48:17.011Z,57.43
2018-07-13T03:49:16.444Z,57.4
2018-07-13T03:50:16.545Z,57.38
2018-07-13T03:51:16.442Z,57.41
2018-07-13T03:52:16.442Z,57.42
2018-07-13T03:53:16.410Z,57.38
2018-07-13T03:54:17.523Z,57.41
2018-07-13T03:55:16.736Z,57.42
2018-07-13T03:56:16.537Z,57.38
2018-07-13T03:57:16.475Z,57.41
2018-07-13T03:58:16.418Z,57.38
2018-07-13T03:59:16.654Z,57.38
2018-07-13T04:00:16.518Z,57.41
2018-07-13T04:01:16.423Z,57.38
2018-07-13T04:02:16.360Z,57.36
2018-07-13T04:03:16.324Z,57.42
2018-07-13T04:04:16.407Z,57.37
2018-07-13T04:05:16.423Z,57.35
2018-07-13T04:06:16.569Z,57.4
2018-07-13T04:07:16.534Z,57.38
2018-07-13T04:08:16.512Z,57.37
2018-07-13T04:09:16.342Z,57.36
2018-07-13T04:10:16.291Z,57.41
2018-07-13T04:11:16.495Z,57.36
2018-07-13T04:12:16.284Z,57.38
2018-07-13T04:13:16.494Z,57.41
2018-07-13T04:14:16.586Z,57.37
2018-07-13T04:15:16.328Z,57.39
2018-07-13T04:16:16.416Z,57.39
2018-07-13T04:17:16.402Z,57.36
2018-07-13T04:18:16.496Z,57.39
2018-07-13T04:19:16.483Z,57.38
2018-07-13T04:20:16.508Z,57.42
2018-07-13T04:21:16.243Z,57.41
2018-07-13T04:22:16.611Z,57.37
2018-07-13T04:23:16.518Z,57.37
2018-07-13T04:24:16.446Z,57.41
2018-07-13T04:25:16.460Z,57.41
2018-07-13T04:26:16.484Z,57.42
2018-07-13T04:27:16.445Z,57.37
2018-07-13T04:28:16.441Z,57.39
2018-07-13T04:29:16.370Z,57.38
2018-07-13T04:30:16.275Z,57.35
2018-07-13T04:31:16.395Z,57.44
2018-07-13T04:32:16.278Z,57.41
2018-07-13T04:33:16.301Z,57.42
2018-07-13T04:34:16.996Z,57.42
2018-07-13T04:35:16.553Z,57.42
2018-07-13T04:36:16.486Z,57.43
2018-07-13T04:37:16.413Z,57.43
2018-07-13T04:38:16.611Z,57.41
2018-07-13T04:39:16.324Z,57.41
2018-07-13T04:40:16.392Z,57.41
2018-07-13T04:41:16.461Z,57.42
2018-07-13T04:42:16.523Z,57.45
2018-07-13T04:43:16.382Z,57.43
2018-07-13T04:44:16.362Z,57.4
2018-07-13T04:45:16.318Z,57.42
2018-07-13T04:46:16.497Z,57.41
2018-07-13T04:47:16.368Z,57.39
2018-07-13T04:48:16.314Z,57.39
2018-07-13T04:49:16.429Z,57.41
2018-07-13T04:50:17.031Z,57.41
2018-07-13T04:51:16.304Z,57.42
2018-07-13T04:52:16.281Z,57.45
2018-07-13T04:53:16.566Z,57.38
2018-07-13T04:54:16.407Z,57.39
2018-07-13T04:55:16.703Z,57.41
2018-07-13T04:56:16.397Z,57.38
2018-07-13T04:57:16.444Z,57.43
2018-07-13T04:58:16.314Z,57.46
2018-07-13T04:59:16.487Z,57.41
2018-07-13T05:00:16.560Z,57.42
2018-07-13T05:01:16.543Z,57.43
2018-07-13T05:02:16.361Z,57.41
2018-07-13T05:03:16.532Z,57.44
2018-07-13T05:04:16.319Z,57.43
2018-07-13T05:05:16.327Z,57.44
2018-07-13T05:06:16.883Z,57.39
2018-07-13T05:07:16.422Z,57.41
2018-07-13T05:08:16.400Z,57.41
2018-07-13T05:09:16.455Z,57.43
2018-07-13T05:10:16.464Z,57.43
2018-07-13T05:11:16.563Z,57.43
2018-07-13T05:12:16.517Z,57.45
2018-07-13T05:13:16.483Z,57.42
2018-07-13T05:14:16.501Z,57.46
2018-07-13T05:15:16.265Z,57.46
2018-07-13T05:16:16.360Z,57.43
2018-07-13T05:17:16.546Z,57.42
2018-07-13T05:18:16.445Z,57.46
2018-07-13T05:19:16.496Z,57.43
2018-07-13T05:20:16.363Z,57.42
2018-07-13T05:21:16.682Z,57.47
2018-07-13T05:22:16.339Z,57.45
2018-07-13T05:23:16.466Z,57.42
2018-07-13T05:24:16.261Z,57.45
2018-07-13T05:25:16.338Z,57.48
2018-07-13T05:26:16.361Z,57.43
2018-07-13T05:27:16.450Z,57.41
2018-07-13T05:28:16.427Z,57.46
2018-07-13T05:29:16.381Z,57.43
2018-07-13T05:30:16.389Z,57.43
2018-07-13T05:31:16.460Z,57.44
2018-07-13T05:32:16.447Z,57.45
2018-07-13T05:33:16.223Z,57.48
2018-07-13T05:34:16.375Z,57.46
2018-07-13T05:35:16.417Z,57.45
2018-07-13T05:36:16.429Z,57.47
2018-07-13T05:37:16.472Z,57.45
2018-07-13T05:38:16.683Z,57.4
2018-07-13T05:39:16.563Z,57.47
2018-07-13T05:40:16.226Z,57.47
2018-07-13T05:41:16.232Z,57.42
2018-07-13T05:42:16.275Z,57.46
2018-07-13T05:43:16.256Z,57.48
2018-07-13T05:44:16.567Z,57.42
2018-07-13T05:45:16.320Z,57.47
2018-07-13T05:46:16.310Z,57.48
2018-07-13T05:47:16.385Z,57.42
2018-07-13T05:48:16.370Z,57.48
2018-07-13T05:49:16.447Z,57.46
2018-07-13T05:50:16.486Z,57.41
2018-07-13T05:51:16.450Z,57.42
2018-07-13T05:52:16.253Z,57.45
2018-07-13T05:53:16.459Z,57.45
2018-07-13T05:54:16.325Z,57.48
2018-07-13T05:55:16.417Z,57.47
2018-07-13T05:56:16.511Z,57.41
2018-07-13T05:57:16.375Z,57.46
2018-07-13T05:58:16.402Z,57.48
2018-07-13T05:59:16.362Z,57.44
2018-07-13T06:00:16.417Z,57.46
2018-07-13T06:01:16.461Z,57.48
2018-07-13T06:02:16.486Z,57.46
2018-07-13T06:03:16.298Z,57.45
2018-07-13T06:04:16.635Z,57.48
2018-07-13T06:05:16.609Z,57.47
2018-07-13T06:06:16.512Z,57.5
2018-07-13T06:07:16.355Z,57.48
2018-07-13T06:08:16.373Z,57.46
2018-07-13T06:09:16.416Z,57.49
2018-07-13T06:10:16.302Z,57.47
2018-07-13T06:11:16.495Z,57.45
2018-07-13T06:12:16.485Z,57.44
2018-07-13T06:13:16.394Z,57.48
2018-07-13T06:14:16.493Z,57.5
2018-07-13T06:15:16.428Z,57.5
2018-07-13T06:16:16.326Z,57.47
2018-07-13T06:17:16.393Z,57.48
2018-07-13T06:18:16.487Z,57.48
2018-07-13T06:19:16.507Z,57.51
2018-07-13T06:20:16.787Z,57.46
2018-07-13T06:21:16.519Z,57.49
2018-07-13T06:22:16.289Z,57.48
2018-07-13T06:23:16.481Z,57.51
2018-07-13T06:24:17.033Z,57.5
2018-07-13T06:25:16.655Z,57.46
2018-07-13T06:26:16.380Z,57.48
2018-07-13T06:27:16.306Z,57.49
2018-07-13T06:28:16.560Z,57.49
2018-07-13T06:29:16.372Z,57.51
2018-07-13T06:30:17.034Z,57.5
2018-07-13T06:31:16.570Z,57.48
2018-07-13T06:32:16.520Z,57.48
2018-07-13T06:33:16.480Z,57.52
2018-07-13T06:34:16.378Z,57.52
2018-07-13T06:35:16.718Z,57.52
2018-07-13T06:36:16.255Z,57.52
2018-07-13T06:37:16.523Z,57.51
2018-07-13T06:38:16.494Z,57.47
2018-07-13T06:39:16.323Z,57.5
2018-07-13T06:40:16.292Z,57.51
2018-07-13T06:41:16.444Z,57.49
2018-07-13T06:42:16.325Z,57.51
2018-07-13T06:43:16.592Z,57.46
2018-07-13T06:44:16.498Z,57.48
2018-07-13T06:45:16.177Z,57.5
2018-07-13T06:46:16.538Z,57.52
2018-07-13T06:47:16.445Z,57.52
2018-07-13T06:48:16.455Z,57.49
2018-07-13T06:49:16.436Z,57.53
2018-07-13T06:50:16.498Z,57.53
2018-07-13T06:51:16.565Z,57.51
2018-07-13T06:52:16.245Z,57.52
2018-07-13T06:53:16.463Z,57.51
2018-07-13T06:54:16.206Z,57.54
2018-07-13T06:55:16.503Z,57.52
2018-07-13T06:56:16.453Z,57.51
2018-07-13T06:57:16.700Z,57.51
2018-07-13T06:58:16.286Z,57.53
2018-07-13T06:59:16.279Z,57.53
2018-07-13T07:00:16.333Z,57.49
2018-07-13T07:01:16.407Z,57.51
2018-07-13T07:02:16.476Z,57.5
2018-07-13T07:03:16.296Z,57.49
2018-07-13T07:04:16.311Z,57.48
2018-07-13T07:05:16.461Z,57.52
2018-07-13T07:06:16.343Z,57.52
2018-07-13T07:07:16.303Z,57.53
2018-07-13T07:08:16.246Z,57.52
2018-07-13T07:09:16.432Z,57.5
2018-07-13T07:10:16.281Z,57.49
2018-07-13T07:11:16.279Z,57.48
2018-07-13T07:12:16.296Z,57.53
2018-07-13T07:13:16.467Z,57.55
2018-07-13T07:14:16.455Z,57.48
2018-07-13T07:15:16.339Z,57.51
2018-07-13T07:16:16.385Z,57.5
2018-07-13T07:17:16.334Z,57.52
2018-07-13T07:18:16.561Z,57.54
2018-07-13T07:19:16.234Z,57.49
2018-07-13T07:20:16.356Z,57.51
2018-07-13T07:21:48.222Z,57.53
2018-07-13T07:22:16.432Z,57.54
2018-07-13T07:23:16.362Z,57.54
2018-07-13T07:24:16.290Z,57.53
2018-07-13T07:25:16.367Z,57.52
2018-07-13T07:26:16.380Z,57.54
2018-07-13T07:27:16.353Z,57.53
2018-07-13T07:28:16.206Z,57.53
2018-07-13T07:29:16.360Z,57.53
2018-07-13T07:30:16.254Z,57.54
2018-07-13T07:31:16.482Z,57.51
2018-07-13T07:32:16.423Z,57.54
2018-07-13T07:33:16.262Z,57.54
2018-07-13T07:34:16.478Z,57.53
2018-07-13T07:35:16.480Z,57.55
2018-07-13T07:36:16.549Z,57.53
2018-07-13T07:37:16.325Z,57.54
2018-07-13T07:38:16.238Z,57.5
2018-07-13T07:39:16.448Z,57.54
2018-07-13T07:40:16.224Z,57.58
2018-07-13T07:41:16.259Z,57.52
2018-07-13T07:42:16.300Z,57.59
2018-07-13T07:43:16.283Z,57.55
2018-07-13T07:44:16.488Z,57.54
2018-07-13T07:45:16.449Z,57.57
2018-07-13T07:46:16.498Z,57.58
2018-07-13T07:47:16.381Z,57.56
2018-07-13T07:48:16.425Z,57.54
2018-07-13T07:49:16.485Z,57.55
2018-07-13T07:50:16.469Z,57.54
2018-07-13T07:51:16.464Z,57.58
2018-07-13T07:52:16.455Z,57.58
2018-07-13T07:53:16.287Z,57.55
2018-07-13T07:54:16.512Z,57.58
2018-07-13T07:55:16.204Z,57.57
2018-07-13T07:56:16.366Z,57.61
2018-07-13T07:57:16.549Z,57.58
2018-07-13T07:58:16.439Z,57.54
2018-07-13T07:59:16.498Z,57.55
2018-07-13T08:00:16.421Z,57.6
2018-07-13T08:01:16.620Z,57.6
2018-07-13T08:02:16.325Z,57.62
2018-07-13T08:03:16.337Z,57.6
2018-07-13T08:04:16.292Z,57.59
2018-07-13T08:05:16.461Z,57.58
2018-07-13T08:06:18.277Z,57.58
2018-07-13T08:07:19.659Z,57.57
2018-07-13T08:08:16.421Z,57.57
2018-07-13T08:09:16.641Z,57.59
2018-07-13T08:10:16.286Z,57.59
2018-07-13T08:11:16.501Z,57.57
2018-07-13T08:12:16.268Z,57.6
2018-07-13T08:13:16.166Z,57.6
2018-07-13T08:14:18.396Z,57.59
2018-07-13T08:15:16.464Z,57.61
2018-07-13T08:16:16.517Z,57.6
2018-07-13T08:17:16.348Z,57.56
2018-07-13T08:18:16.320Z,57.59
2018-07-13T08:19:16.536Z,57.6
2018-07-13T08:20:16.443Z,57.58
2018-07-13T08:21:16.331Z,57.57
2018-07-13T08:22:16.350Z,57.6
2018-07-13T08:23:16.247Z,57.6
2018-07-13T08:24:16.453Z,57.58
2018-07-13T08:25:16.278Z,57.6
2018-07-13T08:26:16.314Z,57.61
2018-07-13T08:27:16.556Z,57.62
2018-07-13T08:28:16.353Z,57.61
2018-07-13T08:29:16.305Z,57.62
2018-07-13T08:30:16.381Z,57.65
2018-07-13T08:31:48.192Z,57.6
2018-07-13T08:32:16.358Z,57.62
2018-07-13T08:33:16.440Z,57.63
2018-07-13T08:34:16.489Z,57.64
2018-07-13T08:35:16.348Z,57.6
2018-07-13T08:36:16.349Z,57.63
2018-07-13T08:37:16.458Z,57.6
2018-07-13T08:38:16.224Z,57.6
2018-07-13T08:39:16.188Z,57.6
2018-07-13T08:40:16.306Z,57.63
2018-07-13T08:41:16.480Z,57.6
2018-07-13T08:42:16.310Z,57.58
2018-07-13T08:43:16.366Z,57.62
2018-07-13T08:44:16.316Z,57.58
2018-07-13T08:45:16.343Z,57.65
2018-07-13T08:46:16.275Z,57.56
2018-07-13T08:47:16.403Z,57.56
2018-07-13T08:48:16.417Z,57.63
2018-07-13T08:49:16.234Z,57.6
2018-07-13T08:50:16.883Z,57.61
2018-07-13T08:51:16.820Z,57.58
2018-07-13T08:52:16.328Z,57.57
2018-07-13T08:53:16.305Z,57.67
2018-07-13T08:54:16.384Z,57.63
2018-07-13T08:55:16.454Z,57.64
2018-07-13T08:56:17.116Z,57.64
2018-07-13T08:57:16.304Z,57.64
2018-07-13T08:58:16.209Z,57.64
2018-07-13T08:59:16.531Z,57.6
2018-07-13T09:00:16.430Z,57.63
2018-07-13T09:01:16.206Z,57.58
2018-07-13T09:02:16.381Z,57.64
2018-07-13T09:03:16.399Z,57.63
2018-07-13T09:04:16.980Z,57.62
2018-07-13T09:05:16.589Z,57.6
2018-07-13T09:06:16.407Z,57.65
2018-07-13T09:07:16.347Z,57.62
2018-07-13T09:08:16.464Z,57.62
2018-07-13T09:09:16.472Z,57.63
2018-07-13T09:10:16.280Z,57.6
2018-07-13T09:11:16.209Z,57.65
2018-07-13T09:12:16.225Z,57.69
2018-07-13T09:13:16.515Z,57.63
2018-07-13T09:14:16.339Z,57.64
2018-07-13T09:15:16.553Z,57.63
2018-07-13T09:16:16.226Z,57.63
2018-07-13T09:17:16.236Z,57.65
2018-07-13T09:18:17.081Z,57.61
2018-07-13T09:19:16.352Z,57.65
2018-07-13T09:20:16.399Z,57.62
2018-07-13T09:21:16.433Z,57.63
2018-07-13T09:22:16.258Z,57.64
2018-07-13T09:23:16.357Z,57.63
2018-07-13T09:24:16.407Z,57.63
2018-07-13T09:25:16.188Z,57.63
2018-07-13T09:26:16.325Z,57.61
2018-07-13T09:27:16.379Z,57.63
2018-07-13T09:28:16.222Z,57.62
2018-07-13T09:29:16.230Z,57.63
2018-07-13T09:30:16.225Z,57.62
2018-07-13T09:31:16.889Z,57.66
2018-07-13T09:32:16.228Z,57.63
2018-07-13T09:33:16.428Z,57.67
2018-07-13T09:34:16.217Z,57.64
2018-07-13T09:35:16.407Z,57.6
2018-07-13T09:36:16.601Z,57.64
2018-07-13T09:37:16.245Z,57.63
2018-07-13T09:38:16.898Z,57.66
2018-07-13T09:39:16.390Z,57.63
2018-07-13T09:40:16.374Z,57.66
2018-07-13T09:41:16.319Z,57.65
2018-07-13T09:42:16.492Z,57.52
2018-07-13T09:43:16.435Z,57.52
2018-07-13T09:44:16.279Z,57.71
2018-07-13T09:45:16.153Z,57.85
2018-07-13T09:46:16.260Z,57.91
2018-07-13T09:47:16.292Z,57.85
2018-07-13T09:48:16.295Z,57.85
2018-07-13T09:49:16.318Z,57.72
2018-07-13T09:50:16.363Z,57.75
2018-07-13T09:51:16.447Z,57.72
2018-07-13T09:52:16.354Z,57.73
2018-07-13T09:53:16.290Z,57.74
2018-07-13T09:54:16.879Z,57.76
2018-07-13T09:55:16.466Z,57.71
2018-07-13T09:56:16.453Z,57.83
2018-07-13T09:57:16.300Z,57.87
2018-07-13T09:58:16.424Z,57.75
2018-07-13T09:59:16.409Z,57.72
2018-07-13T10:00:16.344Z,57.78
2018-07-13T10:01:16.310Z,57.78
2018-07-13T10:02:16.264Z,57.77
2018-07-13T10:03:16.258Z,57.74
2018-07-13T10:04:16.473Z,57.75
2018-07-13T10:05:16.238Z,57.75
2018-07-13T10:06:16.427Z,57.75
2018-07-13T10:07:16.601Z,57.72
2018-07-13T10:08:16.465Z,57.75
2018-07-13T10:09:16.432Z,57.72
2018-07-13T10:10:16.198Z,57.7
2018-07-13T10:11:16.278Z,57.68
2018-07-13T10:12:16.233Z,57.66
2018-07-13T10:13:16.675Z,57.68
2018-07-13T10:14:16.295Z,57.66
2018-07-13T10:15:16.321Z,57.71
2018-07-13T10:16:16.434Z,57.71
2018-07-13T10:17:16.520Z,57.68
2018-07-13T10:18:16.352Z,57.69
2018-07-13T10:19:16.289Z,57.68
2018-07-13T10:20:16.336Z,57.64
2018-07-13T10:21:16.228Z,57.63
2018-07-13T10:22:16.712Z,57.65
2018-07-13T10:23:16.258Z,57.63
2018-07-13T10:24:16.907Z,57.64
2018-07-13T10:25:16.370Z,57.62
2018-07-13T10:26:16.364Z,57.65
2018-07-13T10:27:16.436Z,57.65
2018-07-13T10:28:16.438Z,57.72
2018-07-13T10:29:18.167Z,57.78
2018-07-13T10:30:16.519Z,57.79
2018-07-13T10:31:17.008Z,57.77
2018-07-13T10:32:16.122Z,57.79
2018-07-13T10:33:16.261Z,57.79
2018-07-13T10:34:16.333Z,57.76
2018-07-13T10:35:16.257Z,57.73
2018-07-13T10:36:16.479Z,57.78
2018-07-13T10:37:16.242Z,57.78
2018-07-13T10:38:16.272Z,57.74
2018-07-13T10:39:16.226Z,57.75
2018-07-13T10:40:16.378Z,57.72
2018-07-13T10:41:16.278Z,57.74
2018-07-13T10:42:16.287Z,57.74
2018-07-13T10:43:16.536Z,57.71
2018-07-13T10:44:16.528Z,57.77
2018-07-13T10:45:16.186Z,57.71
2018-07-13T10:46:16.344Z,57.72
2018-07-13T10:47:16.231Z,57.71
2018-07-13T10:48:16.207Z,57.71
2018-07-13T10:49:16.222Z,57.75
2018-07-13T10:50:16.323Z,57.72
2018-07-13T10:51:16.399Z,57.73
2018-07-13T10:52:16.458Z,57.74
2018-07-13T10:53:16.218Z,57.73
2018-07-13T10:54:16.216Z,57.72
2018-07-13T10:55:16.339Z,57.73
2018-07-13T10:56:16.356Z,57.74
2018-07-13T10:57:16.190Z,57.71
2018-07-13T10:58:16.184Z,57.76
2018-07-13T10:59:16.250Z,57.74
2018-07-13T11:00:16.334Z,57.79
2018-07-13T11:01:16.365Z,57.72
2018-07-13T11:02:16.391Z,57.7
2018-07-13T11:03:16.353Z,57.71
2018-07-13T11:04:16.263Z,57.71
2018-07-13T11:05:16.254Z,57.7
2018-07-13T11:06:16.174Z,57.72
2018-07-13T11:07:16.251Z,57.69
2018-07-13T11:08:16.256Z,57.68
2018-07-13T11:09:16.266Z,57.71
2018-07-13T11:10:16.306Z,57.7
2018-07-13T11:11:16.413Z,57.69
2018-07-13T11:12:16.316Z,57.69
2018-07-13T11:13:16.353Z,57.7
2018-07-13T11:14:16.153Z,57.71
2018-07-13T11:15:16.430Z,57.7
2018-07-13T11:16:16.488Z,57.71
2018-07-13T11:17:18.157Z,57.68
2018-07-13T11:18:16.495Z,57.73
2018-07-13T11:19:16.438Z,57.71
2018-07-13T11:20:16.344Z,57.68
2018-07-13T11:21:20.584Z,57.72
2018-07-13T11:22:16.272Z,57.69
2018-07-13T11:23:16.340Z,57.7
2018-07-13T11:24:16.537Z,57.72
2018-07-13T11:25:16.339Z,57.74
2018-07-13T11:26:16.216Z,57.71
2018-07-13T11:27:16.470Z,57.68
2018-07-13T11:28:16.262Z,57.73
2018-07-13T11:29:16.462Z,57.68
2018-07-13T11:30:16.323Z,57.67
2018-07-13T11:31:16.967Z,57.71
2018-07-13T11:32:18.000Z,57.67
2018-07-13T11:33:16.298Z,57.69
2018-07-13T11:34:16.359Z,57.67
2018-07-13T11:35:16.475Z,57.64
2018-07-13T11:36:16.579Z,57.71
2018-07-13T11:37:17.761Z,57.69
2018-07-13T11:38:16.304Z,57.69
2018-07-13T11:39:16.249Z,57.65
2018-07-13T11:40:16.124Z,57.68
2018-07-13T11:41:16.473Z,57.67
2018-07-13T11:42:16.401Z,57.68
2018-07-13T11:43:16.253Z,57.69
2018-07-13T11:44:17.283Z,57.69
2018-07-13T11:45:16.522Z,57.71
2018-07-13T11:46:16.536Z,57.69
2018-07-13T11:47:16.401Z,57.65
2018-07-13T11:48:16.288Z,57.66
2018-07-13T11:49:16.503Z,57.69
2018-07-13T11:50:16.311Z,57.66
2018-07-13T11:51:16.269Z,57.67
2018-07-13T11:52:17.253Z,57.67
2018-07-13T11:53:16.228Z,57.67
2018-07-13T11:54:16.408Z,57.69
2018-07-13T11:55:16.443Z,57.73
2018-07-13T11:56:16.268Z,57.69
2018-07-13T11:57:16.306Z,57.67
2018-07-13T11:58:16.505Z,57.67
2018-07-13T11:59:16.350Z,57.69
2018-07-13T12:00:16.270Z,57.69
2018-07-13T12:01:16.428Z,57.68
2018-07-13T12:02:16.160Z,57.67
2018-07-13T12:03:16.343Z,57.7
2018-07-13T12:04:16.251Z,57.67
2018-07-13T12:05:16.360Z,57.68
2018-07-13T12:06:16.496Z,57.69
2018-07-13T12:07:16.443Z,57.68
2018-07-13T12:08:16.329Z,57.68
2018-07-13T12:09:16.271Z,57.67
2018-07-13T12:10:16.386Z,57.69
2018-07-13T12:11:16.182Z,57.69
2018-07-13T12:12:16.402Z,57.7
2018-07-13T12:13:16.227Z,57.68
2018-07-13T12:14:16.651Z,57.69
2018-07-13T12:15:16.252Z,57.71
2018-07-13T12:16:16.377Z,57.65
2018-07-13T12:17:16.779Z,57.63
2018-07-13T12:18:16.309Z,57.67
2018-07-13T12:19:16.292Z,57.69
2018-07-13T12:20:16.128Z,57.66
2018-07-13T12:21:16.299Z,57.72
2018-07-13T12:22:16.495Z,57.7
2018-07-13T12:23:16.982Z,57.68
2018-07-13T12:24:16.289Z,57.71
2018-07-13T12:25:16.349Z,57.69
2018-07-13T12:26:16.284Z,57.69
2018-07-13T12:27:16.428Z,57.65
2018-07-13T12:28:16.333Z,57.66
2018-07-13T12:29:16.330Z,57.67
2018-07-13T12:30:16.439Z,57.67
2018-07-13T12:31:16.196Z,57.66
2018-07-13T12:32:16.973Z,57.64
2018-07-13T12:33:16.531Z,57.68
2018-07-13T12:34:16.426Z,57.68
2018-07-13T12:35:16.206Z,57.68
2018-07-13T12:36:16.419Z,57.69
2018-07-13T12:37:16.170Z,57.67
2018-07-13T12:38:16.112Z,57.68
2018-07-13T12:39:16.345Z,57.69
2018-07-13T12:40:16.242Z,57.7
2018-07-13T12:41:16.292Z,57.58
2018-07-13T12:42:16.754Z,57.58
2018-07-13T12:43:16.390Z,57.61
2018-07-13T12:44:16.373Z,57.63
2018-07-13T12:45:16.332Z,57.67
2018-07-13T12:46:16.284Z,57.68
2018-07-13T12:47:16.483Z,57.67
2018-07-13T12:48:16.275Z,57.8
2018-07-13T12:49:26.224Z,57.85
2018-07-13T12:50:16.411Z,57.83
2018-07-13T12:51:16.312Z,57.86
2018-07-13T12:52:16.322Z,57.81
2018-07-13T12:53:16.239Z,57.87
2018-07-13T12:54:17.684Z,57.84